createdAt,value
2018-09-20T00:01:32.146Z,19.70
2018-09-20T00:04:06.703Z,19.70
2018-09-20T00:06:41.767Z,19.70
2018-09-20T00:09:18.175Z,19.60
2018-09-20T00:11:54.375Z,19.60
2018-09-20T00:14:30.801Z,19.60
2018-09-20T00:17:06.383Z,19.60
2018-09-20T00:19:41.724Z,19.60
2018-09-20T00:22:20.481Z,19.50
2018-09-20T00:24:56.178Z,19.50
2018-09-20T00:27:32.184Z,19.50
2018-09-20T00:30:06.572Z,19.50
2018-09-20T00:32:41.480Z,19.50
2018-09-20T00:35:16.527Z,19.50
2018-09-20T00:37:50.783Z,19.50
2018-09-20T00:40:25.108Z,19.50
2018-09-20T00:43:00.241Z,19.50
2018-09-20T00:45:34.471Z,19.50
2018-09-20T00:48:10.016Z,19.50
2018-09-20T00:50:45.193Z,19.40
2018-09-20T00:53:20.289Z,19.40
2018-09-20T00:55:55.747Z,19.40
2018-09-20T00:58:31.153Z,19.40
2018-09-20T01:01:07.124Z,19.40
2018-09-20T01:03:42.170Z,19.30
2018-09-20T01:06:19.013Z,19.30
2018-09-20T01:08:57.370Z,19.20
2018-09-20T01:11:34.367Z,19.20
2018-09-20T01:14:09.853Z,19.20
2018-09-20T01:16:44.639Z,19.10
2018-09-20T01:19:18.979Z,19.20
2018-09-20T01:21:53.521Z,19.20
2018-09-20T01:24:27.964Z,19.20
2018-09-20T01:27:02.303Z,19.20
2018-09-20T01:29:37.263Z,19.10
2018-09-20T01:32:11.662Z,19.10
2018-09-20T01:34:46.391Z,19.00
2018-09-20T01:37:20.712Z,19.10
2018-09-20T01:39:55.068Z,19.10
2018-09-20T01:42:29.425Z,19.00
2018-09-20T01:45:04.129Z,19.00
2018-09-20T01:47:38.355Z,18.90
2018-09-20T01:50:13.741Z,18.90
2018-09-20T01:52:48.756Z,18.70
2018-09-20T01:55:23.146Z,18.60
2018-09-20T01:57:59.174Z,18.60
2018-09-20T02:00:33.470Z,18.50
2018-09-20T02:03:14.621Z,18.40
2018-09-20T02:05:48.894Z,18.50
2018-09-20T02:08:23.340Z,18.50
2018-09-20T02:10:57.795Z,18.60
2018-09-20T02:13:32.411Z,18.60
2018-09-20T02:16:06.742Z,18.60
2018-09-20T02:18:41.867Z,18.60
2018-09-20T02:21:16.518Z,18.50
2018-09-20T02:23:50.884Z,18.50
2018-09-20T02:26:25.234Z,18.50
2018-09-20T02:28:59.425Z,18.60
2018-09-20T02:31:33.770Z,18.60
2018-09-20T02:34:08.117Z,18.60
2018-09-20T02:36:42.429Z,18.50
2018-09-20T02:39:16.900Z,18.40
2018-09-20T02:41:52.370Z,18.40
2018-09-20T02:44:26.733Z,18.50
2018-09-20T02:47:01.032Z,18.40
2018-09-20T02:49:35.462Z,18.30
2018-09-20T02:52:09.783Z,18.30
2018-09-20T02:54:44.190Z,18.10
2018-09-20T02:57:18.504Z,18.00
2018-09-20T02:59:52.912Z,17.80
2018-09-20T03:02:29.160Z,17.70
2018-09-20T03:05:03.494Z,17.60
2018-09-20T03:07:37.745Z,17.40
2018-09-20T03:10:12.930Z,17.30
2018-09-20T03:12:47.138Z,17.20
2018-09-20T03:15:21.417Z,17.10
2018-09-20T03:17:55.780Z,17.10
2018-09-20T03:20:30.046Z,17.00
2018-09-20T03:23:05.295Z,16.90
2018-09-20T03:25:41.582Z,16.90
2018-09-20T03:28:16.153Z,16.80
2018-09-20T03:30:52.085Z,16.70
2018-09-20T03:33:27.224Z,16.70
2018-09-20T03:36:02.866Z,16.70
2018-09-20T03:38:37.434Z,16.60
2018-09-20T03:41:12.192Z,16.60
2018-09-20T03:43:47.452Z,16.60
2018-09-20T03:46:21.885Z,16.60
2018-09-20T03:48:56.309Z,16.50
2018-09-20T03:51:30.663Z,16.50
2018-09-20T03:54:05.762Z,16.50
2018-09-20T03:56:40.675Z,16.60
2018-09-20T03:59:15.156Z,16.60
2018-09-20T04:01:49.526Z,16.60
2018-09-20T04:04:23.804Z,16.60
2018-09-20T04:06:58.309Z,16.60
2018-09-20T04:09:32.735Z,16.70
2018-09-20T04:12:07.043Z,16.70
2018-09-20T04:14:41.345Z,16.60
2018-09-20T04:17:15.724Z,16.60
2018-09-20T04:19:50.525Z,16.60
2018-09-20T04:22:31.986Z,16.70
2018-09-20T04:25:06.537Z,16.60
2018-09-20T04:27:41.215Z,16.60
2018-09-20T04:30:15.564Z,16.50
2018-09-20T04:32:50.051Z,16.50
2018-09-20T04:35:24.363Z,16.50
2018-09-20T04:37:58.797Z,16.50
2018-09-20T04:40:33.092Z,16.50
2018-09-20T04:43:07.550Z,16.50
2018-09-20T04:45:43.612Z,16.40
2018-09-20T04:48:18.061Z,16.40
2018-09-20T04:50:52.761Z,16.30
2018-09-20T04:53:27.182Z,16.30
2018-09-20T04:56:01.666Z,16.20
2018-09-20T04:58:36.068Z,16.20
2018-09-20T05:01:10.932Z,16.20
2018-09-20T05:03:45.365Z,16.10
2018-09-20T05:06:20.297Z,16.00
2018-09-20T05:08:54.496Z,16.00
2018-09-20T05:11:28.953Z,15.90
2018-09-20T05:14:03.192Z,15.90
2018-09-20T05:16:37.582Z,15.90
2018-09-20T05:19:12.109Z,15.90
2018-09-20T05:21:47.185Z,15.90
2018-09-20T05:24:22.330Z,15.90
2018-09-20T05:26:57.170Z,15.90
2018-09-20T05:29:31.531Z,15.90
2018-09-20T05:32:06.616Z,15.90
2018-09-20T05:34:40.930Z,15.90
2018-09-20T05:37:15.577Z,15.90
2018-09-20T05:39:50.023Z,16.00
2018-09-20T05:42:25.260Z,16.10
2018-09-20T05:44:59.550Z,16.20
2018-09-20T05:47:35.921Z,16.20
2018-09-20T05:50:11.145Z,16.30
2018-09-20T05:52:47.421Z,16.40
2018-09-20T05:55:22.508Z,16.50
2018-09-20T05:57:56.893Z,16.60
2018-09-20T06:00:31.985Z,16.70
2018-09-20T06:03:07.376Z,16.80
2018-09-20T06:05:41.826Z,16.90
2018-09-20T06:08:21.744Z,17.00
2018-09-20T06:10:56.468Z,17.10
2018-09-20T06:13:31.422Z,17.20
2018-09-20T06:16:05.804Z,17.30
2018-09-20T06:18:40.202Z,17.30
2018-09-20T06:21:14.585Z,17.40
2018-09-20T06:23:49.292Z,17.50
2018-09-20T06:26:23.767Z,17.50
2018-09-20T06:28:58.754Z,17.60
2018-09-20T06:31:33.248Z,17.60
2018-09-20T06:34:07.713Z,17.70
2018-09-20T06:36:42.009Z,17.70
2018-09-20T06:39:17.140Z,17.80
2018-09-20T06:41:51.672Z,17.90
2018-09-20T06:44:26.168Z,18.10
2018-09-20T06:47:05.256Z,18.20
2018-09-20T06:49:39.400Z,18.30
2018-09-20T06:52:13.949Z,18.40
2018-09-20T06:54:48.618Z,18.60
2018-09-20T06:57:24.197Z,18.70
2018-09-20T06:59:58.746Z,18.80
2018-09-20T07:02:34.545Z,18.90
2018-09-20T07:05:08.787Z,19.00
2018-09-20T07:07:43.969Z,19.10
2018-09-20T07:10:18.312Z,19.10
2018-09-20T07:12:55.346Z,19.30
2018-09-20T07:15:30.382Z,19.40
2018-09-20T07:18:06.139Z,19.40
2018-09-20T07:20:42.085Z,19.50
2018-09-20T07:23:17.350Z,19.60
2018-09-20T07:25:52.135Z,19.70
2018-09-20T07:28:27.919Z,19.80
2018-09-20T07:31:02.270Z,19.80
2018-09-20T07:33:36.707Z,19.90
2018-09-20T07:36:11.047Z,20.00
2018-09-20T07:38:45.317Z,20.10
2018-09-20T07:41:20.670Z,20.20
2018-09-20T07:43:56.607Z,20.30
2018-09-20T07:46:32.536Z,20.30
2018-09-20T07:49:08.225Z,20.40
2018-09-20T07:51:42.480Z,20.40
2018-09-20T07:54:18.416Z,20.50
2018-09-20T07:56:53.249Z,20.60
2018-09-20T07:59:27.939Z,20.60
2018-09-20T08:02:02.326Z,20.80
2018-09-20T08:04:40.380Z,20.90
2018-09-20T08:07:15.150Z,21.00
2018-09-20T08:09:49.750Z,21.10
2018-09-20T08:12:26.258Z,21.20
2018-09-20T08:15:02.326Z,21.20
2018-09-20T08:17:39.605Z,21.30
2018-09-20T08:20:14.899Z,21.30
2018-09-20T08:22:49.462Z,21.40
2018-09-20T08:25:23.933Z,21.40
2018-09-20T08:27:58.254Z,21.40
2018-09-20T08:30:32.587Z,21.50
2018-09-20T08:33:07.014Z,21.60
2018-09-20T08:35:41.204Z,21.60
2018-09-20T08:38:15.363Z,21.70
2018-09-20T08:40:49.732Z,21.80
2018-09-20T08:43:24.105Z,21.90
2018-09-20T08:45:58.650Z,21.90
2018-09-20T08:48:33.945Z,22.00
2018-09-20T08:51:08.373Z,22.10
2018-09-20T08:53:42.901Z,22.20
2018-09-20T08:56:17.286Z,22.30
2018-09-20T08:58:51.746Z,22.40
2018-09-20T09:01:26.283Z,22.40
2018-09-20T09:04:03.560Z,22.40
2018-09-20T09:06:37.873Z,22.40
2018-09-20T09:09:12.473Z,22.50
2018-09-20T09:11:47.859Z,22.80
2018-09-20T09:14:22.580Z,22.90
2018-09-20T09:16:57.042Z,22.90
2018-09-20T09:19:32.132Z,22.90
2018-09-20T09:22:06.546Z,22.80
2018-09-20T09:24:40.945Z,22.80
2018-09-20T09:27:15.358Z,22.80
2018-09-20T09:29:49.731Z,22.80
2018-09-20T09:32:24.077Z,22.80
2018-09-20T09:34:58.454Z,22.90
2018-09-20T09:37:32.853Z,23.00
2018-09-20T09:40:07.792Z,23.10
2018-09-20T09:42:42.278Z,23.00
2018-09-20T09:45:16.675Z,23.10
2018-09-20T09:47:51.173Z,23.20
2018-09-20T09:50:25.654Z,23.30
2018-09-20T09:53:01.016Z,23.30
2018-09-20T09:55:35.964Z,23.40
2018-09-20T09:58:10.517Z,23.50
2018-09-20T10:00:44.810Z,23.40
2018-09-20T10:03:19.123Z,23.50
2018-09-20T10:05:53.934Z,23.70
2018-09-20T10:08:28.250Z,23.70
2018-09-20T10:11:02.612Z,23.70
2018-09-20T10:13:37.088Z,23.70
2018-09-20T10:16:11.403Z,23.90
2018-09-20T10:18:45.835Z,24.00
2018-09-20T10:21:20.348Z,24.10
2018-09-20T10:23:54.821Z,24.30
2018-09-20T10:26:29.828Z,24.20
2018-09-20T10:29:04.192Z,24.60
2018-09-20T10:31:40.027Z,24.90
2018-09-20T10:34:14.361Z,25.10
2018-09-20T10:36:48.688Z,25.20
2018-09-20T10:39:22.936Z,25.30
2018-09-20T10:41:58.368Z,25.50
2018-09-20T10:44:32.618Z,25.70
2018-09-20T10:47:07.632Z,25.70
2018-09-20T10:49:41.883Z,25.90
2018-09-20T10:52:16.253Z,25.80
2018-09-20T10:54:50.650Z,25.80
2018-09-20T10:57:25.025Z,25.90
2018-09-20T11:00:01.264Z,25.60
2018-09-20T11:02:38.317Z,25.70
2018-09-20T11:05:13.124Z,25.50
2018-09-20T11:07:47.639Z,25.30
2018-09-20T11:10:22.809Z,25.30
2018-09-20T11:12:57.041Z,25.20
2018-09-20T11:15:31.445Z,25.40
2018-09-20T11:18:05.757Z,25.50
2018-09-20T11:20:40.160Z,25.90
2018-09-20T11:23:14.493Z,26.00
2018-09-20T11:25:48.846Z,26.30
2018-09-20T11:28:23.350Z,26.40
2018-09-20T11:30:57.673Z,26.30
2018-09-20T11:33:31.945Z,26.40
2018-09-20T11:36:07.787Z,26.50
2018-09-20T11:38:43.189Z,26.40
2018-09-20T11:41:17.673Z,26.40
2018-09-20T11:43:53.058Z,26.30
2018-09-20T11:46:27.558Z,26.30
2018-09-20T11:49:02.104Z,26.20
2018-09-20T11:51:36.521Z,26.10
2018-09-20T11:54:11.344Z,26.20
2018-09-20T11:56:46.285Z,26.30
2018-09-20T11:59:20.462Z,26.20
2018-09-20T12:01:54.849Z,26.30
2018-09-20T12:04:29.341Z,26.40
2018-09-20T12:07:04.075Z,26.50
2018-09-20T12:09:38.378Z,26.70
2018-09-20T12:12:12.845Z,27.10
2018-09-20T12:14:47.420Z,27.20
2018-09-20T12:17:21.737Z,27.10
2018-09-20T12:19:56.115Z,26.90
2018-09-20T12:22:30.561Z,26.70
2018-09-20T12:25:04.988Z,26.80
2018-09-20T12:27:39.329Z,27.00
2018-09-20T12:30:14.510Z,27.10
2018-09-20T12:32:48.847Z,27.20
2018-09-20T12:35:23.217Z,27.20
2018-09-20T12:37:57.875Z,27.20
2018-09-20T12:40:32.332Z,27.00
2018-09-20T12:43:06.675Z,27.00
2018-09-20T12:45:41.984Z,26.90
2018-09-20T12:48:16.424Z,27.10
2018-09-20T12:50:50.552Z,27.00
2018-09-20T12:53:24.914Z,27.00
2018-09-20T12:55:59.194Z,27.00
2018-09-20T12:58:38.842Z,27.10
2018-09-20T13:01:13.128Z,27.10
2018-09-20T13:03:47.555Z,27.20
2018-09-20T13:06:21.977Z,27.20
2018-09-20T13:08:56.159Z,27.40
2018-09-20T13:11:30.637Z,27.70
2018-09-20T13:14:05.016Z,28.10
2018-09-20T13:16:39.249Z,28.10
2018-09-20T13:19:13.539Z,28.90
2018-09-20T13:21:47.957Z,29.10
2018-09-20T13:24:22.234Z,29.10
2018-09-20T13:26:56.455Z,29.20
2018-09-20T13:29:30.608Z,28.90
2018-09-20T13:32:04.993Z,28.90
2018-09-20T13:34:39.373Z,28.60
2018-09-20T13:37:13.657Z,28.40
2018-09-20T13:39:47.745Z,29.30
2018-09-20T13:42:22.020Z,29.80
2018-09-20T13:44:58.410Z,30.70
2018-09-20T13:47:33.779Z,30.60
2018-09-20T13:50:08.084Z,30.70
2018-09-20T13:52:42.500Z,30.20
2018-09-20T13:55:16.825Z,31.10
2018-09-20T13:57:51.062Z,31.30
2018-09-20T14:00:25.261Z,31.30
2018-09-20T14:02:59.571Z,31.30
2018-09-20T14:05:33.680Z,31.90
2018-09-20T14:08:19.376Z,33.40
2018-09-20T14:10:53.825Z,33.80
2018-09-20T14:13:28.020Z,33.90
2018-09-20T14:16:14.217Z,33.70
2018-09-20T14:18:48.591Z,34.60
2018-09-20T14:21:22.785Z,35.40
2018-09-20T14:23:57.046Z,35.90
2018-09-20T14:29:36.816Z,35.10
2018-09-20T14:32:11.620Z,34.40
2018-09-20T14:34:45.940Z,33.30
2018-09-20T14:37:20.376Z,33.20
2018-09-20T14:39:54.733Z,34.10
2018-09-20T14:42:29.364Z,34.10
2018-09-20T14:45:04.650Z,33.90
2018-09-20T14:47:39.070Z,33.40
2018-09-20T14:50:13.332Z,32.60
2018-09-20T14:52:47.985Z,33.60
2018-09-20T14:55:22.167Z,34.50
2018-09-20T14:57:56.920Z,33.80
2018-09-20T15:00:31.141Z,34.00
2018-09-20T15:03:05.511Z,33.70
2018-09-20T15:05:39.848Z,32.90
2018-09-20T15:08:14.155Z,31.90
2018-09-20T15:10:48.593Z,31.90
2018-09-20T15:13:22.975Z,31.80
2018-09-20T15:15:57.196Z,30.80
2018-09-20T15:18:31.546Z,31.20
2018-09-20T15:21:05.849Z,33.30
2018-09-20T15:23:40.268Z,34.90
2018-09-20T15:26:14.717Z,34.50
2018-09-20T15:28:49.220Z,35.30
2018-09-20T15:31:24.551Z,35.90
2018-09-20T15:33:59.489Z,37.40
2018-09-20T15:36:34.044Z,37.40
2018-09-20T15:39:10.253Z,37.40
2018-09-20T15:41:44.592Z,37.50
2018-09-20T15:44:19.034Z,37.10
2018-09-20T15:46:53.536Z,37.40
2018-09-20T15:49:27.751Z,37.00
2018-09-20T15:52:02.283Z,37.70
2018-09-20T15:54:36.747Z,37.90
2018-09-20T15:57:11.139Z,37.90
2018-09-20T15:59:45.480Z,38.70
2018-09-20T16:02:19.770Z,39.40
2018-09-20T16:04:54.219Z,38.20
2018-09-20T16:07:28.431Z,38.10
2018-09-20T16:10:02.977Z,37.50
2018-09-20T16:12:37.377Z,36.30
2018-09-20T16:15:11.721Z,36.10
2018-09-20T16:17:46.084Z,35.60
2018-09-20T16:20:20.480Z,32.90
2018-09-20T16:22:54.765Z,30.90
2018-09-20T16:25:29.133Z,30.00
2018-09-20T16:28:11.744Z,29.40
2018-09-20T16:31:39.205Z,28.60
2018-09-20T16:34:32.404Z,28.20
2018-09-20T16:37:19.284Z,27.80
2018-09-20T16:39:55.429Z,27.40
2018-09-20T16:42:30.828Z,27.40
2018-09-20T16:45:06.152Z,27.30
2018-09-20T16:47:40.392Z,27.10
2018-09-20T16:50:14.916Z,27.00
2018-09-20T16:52:49.449Z,26.80
2018-09-20T16:55:24.313Z,26.60
2018-09-20T16:57:58.692Z,26.40
2018-09-20T17:00:32.992Z,26.20
2018-09-20T17:03:07.225Z,26.10
2018-09-20T17:05:41.753Z,25.90
2018-09-20T17:08:16.134Z,25.80
2018-09-20T17:10:50.517Z,25.60
2018-09-20T17:13:26.017Z,25.40
2018-09-20T17:16:00.294Z,25.30
2018-09-20T17:18:35.928Z,25.10
2018-09-20T17:21:10.515Z,25.00
2018-09-20T17:23:45.017Z,24.80
2018-09-20T17:26:19.390Z,24.70
2018-09-20T17:28:53.780Z,24.50
2018-09-20T17:31:30.169Z,24.40
2018-09-20T17:34:05.677Z,24.20
2018-09-20T17:36:41.671Z,24.00
2018-09-20T17:39:16.653Z,23.80
2018-09-20T17:41:52.566Z,23.60
2018-09-20T17:44:27.393Z,23.50
2018-09-20T17:47:01.818Z,23.30
2018-09-20T17:49:36.251Z,23.10
2018-09-20T17:52:10.930Z,22.90
2018-09-20T17:55:21.735Z,22.70
2018-09-20T17:57:56.780Z,22.60
2018-09-20T18:00:31.082Z,22.40
2018-09-20T18:03:06.688Z,22.30
2018-09-20T18:05:40.853Z,22.20
2018-09-20T18:08:15.364Z,22.10
2018-09-20T18:10:49.756Z,22.10
2018-09-20T18:13:24.097Z,22.00
2018-09-20T18:16:00.352Z,21.90
2018-09-20T18:18:34.776Z,21.80
2018-09-20T18:21:09.097Z,21.70
2018-09-20T18:23:43.824Z,21.60
2018-09-20T18:26:20.003Z,21.50
2018-09-20T18:28:54.987Z,21.40
2018-09-20T18:31:30.081Z,21.30
2018-09-20T18:34:05.012Z,21.30
2018-09-20T18:36:40.229Z,21.20
2018-09-20T18:39:15.423Z,21.10
2018-09-20T18:41:50.511Z,21.00
2018-09-20T18:44:24.863Z,20.90
2018-09-20T18:46:59.534Z,20.90
2018-09-20T18:49:33.800Z,20.90
2018-09-20T18:52:08.163Z,20.80
2018-09-20T18:54:42.676Z,20.70
2018-09-20T18:57:17.017Z,20.60
2018-09-20T18:59:51.557Z,20.60
2018-09-20T19:02:25.856Z,20.60
2018-09-20T19:05:00.964Z,20.50
2018-09-20T19:07:35.541Z,20.50
2018-09-20T19:10:10.469Z,20.40
2018-09-20T19:12:44.907Z,20.30
2018-09-20T19:15:20.265Z,20.30
2018-09-20T19:17:55.041Z,20.20
2018-09-20T19:20:29.502Z,20.20
2018-09-20T19:23:04.573Z,20.10
2018-09-20T19:25:39.001Z,20.10
2018-09-20T19:28:13.411Z,20.00
2018-09-20T19:30:47.821Z,20.00
2018-09-20T19:33:22.404Z,20.00
2018-09-20T19:35:57.153Z,19.90
2018-09-20T19:38:33.285Z,19.80
2018-09-20T19:41:07.950Z,19.80
2018-09-20T19:43:42.315Z,19.70
2018-09-20T19:46:16.878Z,19.70
2018-09-20T19:48:51.139Z,19.60
2018-09-20T19:51:25.460Z,19.50
2018-09-20T19:53:59.808Z,19.50
2018-09-20T19:56:34.236Z,19.50
2018-09-20T19:59:08.650Z,19.40
2018-09-20T20:01:42.963Z,19.40
2018-09-20T20:04:17.582Z,19.30
2018-09-20T20:06:51.981Z,19.30
2018-09-20T20:09:26.309Z,19.20
2018-09-20T20:12:00.806Z,19.20
2018-09-20T20:14:35.633Z,19.10
2018-09-20T20:17:10.144Z,19.10
2018-09-20T20:19:44.420Z,19.00
2018-09-20T20:22:20.004Z,19.00
2018-09-20T20:24:54.276Z,19.00
2018-09-20T20:27:29.582Z,18.90
2018-09-20T20:30:03.849Z,18.90
2018-09-20T20:32:38.283Z,18.90
2018-09-20T20:35:12.639Z,18.90
2018-09-20T20:37:48.822Z,18.80
2018-09-20T20:40:23.997Z,18.80
2018-09-20T20:42:59.223Z,18.80
2018-09-20T20:45:33.521Z,18.70
2018-09-20T20:48:08.235Z,18.70
2018-09-20T20:50:42.825Z,18.60
2018-09-20T20:53:17.549Z,18.60
2018-09-20T20:55:52.413Z,18.50
2018-09-20T20:58:26.767Z,18.50
2018-09-20T21:01:00.946Z,18.50
2018-09-20T21:03:35.836Z,18.60
2018-09-20T21:06:10.433Z,18.70
2018-09-20T21:08:45.351Z,18.70
2018-09-20T21:11:20.782Z,18.90
2018-09-20T21:13:55.006Z,19.10
2018-09-20T21:16:29.608Z,19.30
2018-09-20T21:19:04.636Z,19.50
2018-09-20T21:21:39.786Z,19.70
2018-09-20T21:24:16.093Z,19.90
2018-09-20T21:26:50.767Z,20.10
2018-09-20T21:29:25.878Z,20.20
2018-09-20T21:32:00.340Z,20.40
2018-09-20T21:34:34.744Z,20.40
2018-09-20T21:37:09.123Z,20.40
2018-09-20T21:39:44.709Z,20.40
2018-09-20T21:42:18.940Z,20.40
2018-09-20T21:44:54.943Z,20.40
2018-09-20T21:47:29.157Z,20.30
2018-09-20T21:50:03.935Z,20.20
2018-09-20T21:52:38.198Z,20.20
2018-09-20T21:55:12.470Z,20.20
2018-09-20T21:57:46.790Z,20.10
2018-09-20T22:00:21.094Z,20.10
2018-09-20T22:03:03.310Z,20.00
2018-09-20T22:05:38.339Z,20.00
2018-09-20T22:08:12.623Z,19.90
2018-09-20T22:10:46.876Z,19.80
2018-09-20T22:13:21.096Z,19.80
2018-09-20T22:15:55.441Z,19.70
2018-09-20T22:18:29.994Z,19.60
2018-09-20T22:21:04.369Z,19.60
2018-09-20T22:23:38.741Z,19.50
2018-09-20T22:26:13.338Z,19.50
2018-09-20T22:28:47.712Z,19.40
2018-09-20T22:31:22.228Z,19.30
2018-09-20T22:33:56.515Z,19.30
2018-09-20T22:36:30.874Z,19.20
2018-09-20T22:39:08.524Z,19.20
2018-09-20T22:41:42.876Z,19.20
2018-09-20T22:44:17.144Z,19.20
2018-09-20T22:46:51.473Z,19.10
2018-09-20T22:49:25.799Z,19.00
2018-09-20T22:52:00.013Z,19.00
2018-09-20T22:54:34.255Z,19.00
2018-09-20T22:57:09.341Z,18.90
2018-09-20T22:59:44.121Z,18.90
2018-09-20T23:02:18.444Z,18.80
2018-09-20T23:04:52.664Z,18.80
2018-09-20T23:07:26.998Z,18.80
2018-09-20T23:10:01.385Z,18.70
2018-09-20T23:12:35.675Z,18.70
2018-09-20T23:15:10.126Z,18.60
2018-09-20T23:17:44.357Z,18.60
2018-09-20T23:20:18.966Z,18.50
2018-09-20T23:22:53.380Z,18.50
2018-09-20T23:25:28.314Z,18.40
2018-09-20T23:28:02.692Z,18.40
2018-09-20T23:30:38.809Z,18.40
2018-09-20T23:33:13.809Z,18.30
2018-09-20T23:35:49.082Z,18.30
2018-09-20T23:38:24.265Z,18.30
2018-09-20T23:40:58.554Z,18.20
2018-09-20T23:43:32.833Z,18.30
2018-09-20T23:46:07.826Z,18.20
2018-09-20T23:48:42.204Z,18.20
2018-09-20T23:51:16.567Z,18.20
2018-09-20T23:53:50.841Z,18.10
2018-09-20T23:56:25.157Z,18.10
2018-09-20T23:58:59.460Z,18.00
